sensor_id;sensor_type;location;lat;lon;timestamp;P1;durP1;ratioP1;P2;durP2;ratioP2
22963;SDS011;11648;49.306;6.934;2023-02-04T00:00:05;9.90;;;6.20;;
22963;SDS011;11648;49.306;6.934;2023-02-04T00:02:34;10.33;;;6.43;;
22963;SDS011;11648;49.306;6.934;2023-02-04T00:05:01;11.10;;;7.00;;
22963;SDS011;11648;49.306;6.934;2023-02-04T00:07:27;10.33;;;6.70;;
22963;SDS011;11648;49.306;6.934;2023-02-04T00:09:54;8.53;;;6.10;;
22963;SDS011;11648;49.306;6.934;2023-02-04T00:12:21;10.63;;;6.70;;
22963;SDS011;11648;49.306;6.934;2023-02-04T00:14:48;10.50;;;6.53;;
22963;SDS011;11648;49.306;6.934;2023-02-04T00:17:15;11.00;;;7.03;;
22963;SDS011;11648;49.306;6.934;2023-02-04T00:19:42;9.43;;;6.07;;
22963;SDS011;11648;49.306;6.934;2023-02-04T00:22:09;11.03;;;7.53;;
22963;SDS011;11648;49.306;6.934;2023-02-04T00:24:36;10.60;;;6.83;;
22963;SDS011;11648;49.306;6.934;2023-02-04T00:27:04;11.17;;;6.90;;
22963;SDS011;11648;49.306;6.934;2023-02-04T00:29:31;13.47;;;7.27;;
22963;SDS011;11648;49.306;6.934;2023-02-04T00:31:58;11.03;;;7.00;;
22963;SDS011;11648;49.306;6.934;2023-02-04T00:34:26;12.10;;;6.73;;
22963;SDS011;11648;49.306;6.934;2023-02-04T00:36:52;11.17;;;6.47;;
22963;SDS011;11648;49.306;6.934;2023-02-04T00:39:19;10.30;;;7.20;;
22963;SDS011;11648;49.306;6.934;2023-02-04T00:41:46;11.30;;;6.97;;
22963;SDS011;11648;49.306;6.934;2023-02-04T00:44:12;11.10;;;7.10;;
22963;SDS011;11648;49.306;6.934;2023-02-04T00:46:40;11.17;;;7.10;;
22963;SDS011;11648;49.306;6.934;2023-02-04T00:49:08;10.60;;;6.40;;
22963;SDS011;11648;49.306;6.934;2023-02-04T00:51:37;11.77;;;7.00;;
22963;SDS011;11648;49.306;6.934;2023-02-04T00:54:04;12.87;;;7.43;;
22963;SDS011;11648;49.306;6.934;2023-02-04T00:56:33;12.23;;;6.97;;
22963;SDS011;11648;49.306;6.934;2023-02-04T00:59:01;12.37;;;6.80;;
22963;SDS011;11648;49.306;6.934;2023-02-04T01:01:28;13.83;;;7.20;;
22963;SDS011;11648;49.306;6.934;2023-02-04T01:03:55;11.73;;;6.87;;
22963;SDS011;11648;49.306;6.934;2023-02-04T01:06:22;11.93;;;7.10;;
22963;SDS011;11648;49.306;6.934;2023-02-04T01:08:49;13.20;;;7.67;;
22963;SDS011;11648;49.306;6.934;2023-02-04T01:11:16;11.93;;;6.87;;
22963;SDS011;11648;49.306;6.934;2023-02-04T01:13:43;12.00;;;7.23;;
22963;SDS011;11648;49.306;6.934;2023-02-04T01:16:11;12.90;;;7.30;;
22963;SDS011;11648;49.306;6.934;2023-02-04T01:18:38;12.47;;;7.00;;
22963;SDS011;11648;49.306;6.934;2023-02-04T01:21:05;12.43;;;7.07;;
22963;SDS011;11648;49.306;6.934;2023-02-04T01:23:31;12.03;;;7.00;;
22963;SDS011;11648;49.306;6.934;2023-02-04T01:25:59;11.63;;;6.73;;
22963;SDS011;11648;49.306;6.934;2023-02-04T01:28:25;13.10;;;7.30;;
22963;SDS011;11648;49.306;6.934;2023-02-04T01:30:52;15.63;;;7.20;;
22963;SDS011;11648;49.306;6.934;2023-02-04T01:33:20;11.60;;;6.83;;
22963;SDS011;11648;49.306;6.934;2023-02-04T01:35:47;15.50;;;7.60;;
22963;SDS011;11648;49.306;6.934;2023-02-04T01:38:13;14.07;;;7.50;;
22963;SDS011;11648;49.306;6.934;2023-02-04T01:40:40;11.40;;;6.67;;
22963;SDS011;11648;49.306;6.934;2023-02-04T01:43:08;13.43;;;6.80;;
22963;SDS011;11648;49.306;6.934;2023-02-04T01:45:36;10.07;;;6.47;;
22963;SDS011;11648;49.306;6.934;2023-02-04T01:48:04;12.97;;;7.10;;
22963;SDS011;11648;49.306;6.934;2023-02-04T01:50:32;10.50;;;6.67;;
22963;SDS011;11648;49.306;6.934;2023-02-04T01:52:59;9.40;;;6.90;;
22963;SDS011;11648;49.306;6.934;2023-02-04T01:55:27;12.17;;;6.97;;
22963;SDS011;11648;49.306;6.934;2023-02-04T01:57:55;11.33;;;6.30;;
22963;SDS011;11648;49.306;6.934;2023-02-04T02:00:31;14.00;;;7.13;;
22963;SDS011;11648;49.306;6.934;2023-02-04T02:02:59;10.57;;;6.97;;
22963;SDS011;11648;49.306;6.934;2023-02-04T02:05:28;13.63;;;7.27;;
22963;SDS011;11648;49.306;6.934;2023-02-04T02:08:01;10.50;;;7.10;;
22963;SDS011;11648;49.306;6.934;2023-02-04T02:10:30;9.43;;;6.33;;
22963;SDS011;11648;49.306;6.934;2023-02-04T02:12:58;14.93;;;6.60;;
22963;SDS011;11648;49.306;6.934;2023-02-04T02:15:25;10.37;;;6.70;;
22963;SDS011;11648;49.306;6.934;2023-02-04T02:17:52;12.40;;;6.67;;
22963;SDS011;11648;49.306;6.934;2023-02-04T02:20:21;13.57;;;6.77;;
22963;SDS011;11648;49.306;6.934;2023-02-04T02:25:32;14.97;;;7.13;;
22963;SDS011;11648;49.306;6.934;2023-02-04T02:27:59;12.63;;;7.00;;
22963;SDS011;11648;49.306;6.934;2023-02-04T02:30:28;11.60;;;7.53;;
22963;SDS011;11648;49.306;6.934;2023-02-04T02:32:55;11.67;;;7.50;;
22963;SDS011;11648;49.306;6.934;2023-02-04T02:35:23;10.97;;;7.07;;
22963;SDS011;11648;49.306;6.934;2023-02-04T02:37:49;12.93;;;7.00;;
22963;SDS011;11648;49.306;6.934;2023-02-04T02:40:16;12.80;;;7.40;;
22963;SDS011;11648;49.306;6.934;2023-02-04T02:42:44;12.03;;;7.70;;
22963;SDS011;11648;49.306;6.934;2023-02-04T02:45:17;12.60;;;7.17;;
22963;SDS011;11648;49.306;6.934;2023-02-04T02:47:48;12.33;;;7.17;;
22963;SDS011;11648;49.306;6.934;2023-02-04T02:50:16;13.63;;;7.47;;
22963;SDS011;11648;49.306;6.934;2023-02-04T02:52:47;10.17;;;7.10;;
22963;SDS011;11648;49.306;6.934;2023-02-04T02:55:15;11.30;;;6.97;;
22963;SDS011;11648;49.306;6.934;2023-02-04T02:57:44;10.17;;;7.00;;
22963;SDS011;11648;49.306;6.934;2023-02-04T03:00:33;13.90;;;8.30;;
22963;SDS011;11648;49.306;6.934;2023-02-04T03:03:10;10.63;;;7.40;;
22963;SDS011;11648;49.306;6.934;2023-02-04T03:05:41;12.70;;;7.30;;
22963;SDS011;11648;49.306;6.934;2023-02-04T03:08:12;9.83;;;6.97;;
22963;SDS011;11648;49.306;6.934;2023-02-04T03:10:40;11.60;;;6.80;;
22963;SDS011;11648;49.306;6.934;2023-02-04T03:13:09;11.73;;;7.20;;
22963;SDS011;11648;49.306;6.934;2023-02-04T03:15:37;12.33;;;7.70;;
22963;SDS011;11648;49.306;6.934;2023-02-04T03:18:04;11.07;;;7.03;;
22963;SDS011;11648;49.306;6.934;2023-02-04T03:20:31;16.03;;;7.67;;
22963;SDS011;11648;49.306;6.934;2023-02-04T03:22:59;11.87;;;7.53;;
22963;SDS011;11648;49.306;6.934;2023-02-04T03:25:26;13.97;;;7.17;;
22963;SDS011;11648;49.306;6.934;2023-02-04T03:27:56;11.77;;;7.13;;
22963;SDS011;11648;49.306;6.934;2023-02-04T03:30:24;14.90;;;8.07;;
22963;SDS011;11648;49.306;6.934;2023-02-04T03:32:51;10.40;;;6.60;;
22963;SDS011;11648;49.306;6.934;2023-02-04T03:35:19;11.10;;;6.67;;
22963;SDS011;11648;49.306;6.934;2023-02-04T03:37:46;12.03;;;6.60;;
22963;SDS011;11648;49.306;6.934;2023-02-04T03:40:12;12.88;;;8.50;;
22963;SDS011;11648;49.306;6.934;2023-02-04T03:42:39;12.20;;;7.50;;
22963;SDS011;11648;49.306;6.934;2023-02-04T03:45:06;12.17;;;7.30;;
22963;SDS011;11648;49.306;6.934;2023-02-04T03:47:33;15.73;;;7.43;;
22963;SDS011;11648;49.306;6.934;2023-02-04T03:49:59;13.20;;;6.90;;
22963;SDS011;11648;49.306;6.934;2023-02-04T03:52:26;13.53;;;6.77;;
22963;SDS011;11648;49.306;6.934;2023-02-04T03:54:53;12.43;;;7.97;;
22963;SDS011;11648;49.306;6.934;2023-02-04T03:57:20;11.47;;;7.37;;
22963;SDS011;11648;49.306;6.934;2023-02-04T03:59:47;13.23;;;7.53;;
22963;SDS011;11648;49.306;6.934;2023-02-04T04:02:13;12.37;;;7.10;;
22963;SDS011;11648;49.306;6.934;2023-02-04T04:04:40;11.23;;;7.03;;
22963;SDS011;11648;49.306;6.934;2023-02-04T04:07:07;10.97;;;6.80;;
22963;SDS011;11648;49.306;6.934;2023-02-04T04:09:33;12.13;;;6.83;;
22963;SDS011;11648;49.306;6.934;2023-02-04T04:12:00;10.50;;;6.90;;
22963;SDS011;11648;49.306;6.934;2023-02-04T04:14:28;10.33;;;7.03;;
22963;SDS011;11648;49.306;6.934;2023-02-04T04:16:55;6.07;;;3.93;;
22963;SDS011;11648;49.306;6.934;2023-02-04T04:19:22;6.57;;;4.07;;
22963;SDS011;11648;49.306;6.934;2023-02-04T04:21:50;8.63;;;3.60;;
22963;SDS011;11648;49.306;6.934;2023-02-04T04:24:16;6.17;;;3.70;;
22963;SDS011;11648;49.306;6.934;2023-02-04T04:26:43;5.43;;;2.77;;
22963;SDS011;11648;49.306;6.934;2023-02-04T04:29:10;4.80;;;2.80;;
22963;SDS011;11648;49.306;6.934;2023-02-04T04:31:37;3.80;;;2.10;;
22963;SDS011;11648;49.306;6.934;2023-02-04T04:34:04;3.50;;;2.10;;
22963;SDS011;11648;49.306;6.934;2023-02-04T04:36:30;2.83;;;1.60;;
22963;SDS011;11648;49.306;6.934;2023-02-04T04:38:57;2.53;;;1.63;;
22963;SDS011;11648;49.306;6.934;2023-02-04T04:41:25;2.23;;;1.50;;
22963;SDS011;11648;49.306;6.934;2023-02-04T04:43:51;2.00;;;1.30;;
22963;SDS011;11648;49.306;6.934;2023-02-04T04:46:18;3.07;;;1.33;;
22963;SDS011;11648;49.306;6.934;2023-02-04T04:48:45;2.00;;;1.10;;
22963;SDS011;11648;49.306;6.934;2023-02-04T04:51:11;1.73;;;1.10;;
22963;SDS011;11648;49.306;6.934;2023-02-04T04:53:38;3.47;;;1.10;;
22963;SDS011;11648;49.306;6.934;2023-02-04T04:56:04;1.33;;;0.90;;
22963;SDS011;11648;49.306;6.934;2023-02-04T04:58:31;1.40;;;0.70;;
22963;SDS011;11648;49.306;6.934;2023-02-04T05:00:58;1.43;;;0.83;;
22963;SDS011;11648;49.306;6.934;2023-02-04T05:03:25;1.53;;;0.70;;
22963;SDS011;11648;49.306;6.934;2023-02-04T05:05:52;0.90;;;0.50;;
22963;SDS011;11648;49.306;6.934;2023-02-04T05:08:19;1.33;;;0.40;;
22963;SDS011;11648;49.306;6.934;2023-02-04T05:10:46;0.57;;;0.40;;
22963;SDS011;11648;49.306;6.934;2023-02-04T05:13:13;1.17;;;0.60;;
22963;SDS011;11648;49.306;6.934;2023-02-04T05:15:41;1.40;;;0.40;;
22963;SDS011;11648;49.306;6.934;2023-02-04T05:18:08;0.83;;;0.30;;
22963;SDS011;11648;49.306;6.934;2023-02-04T05:20:35;1.03;;;0.30;;
22963;SDS011;11648;49.306;6.934;2023-02-04T05:23:01;1.53;;;0.43;;
22963;SDS011;11648;49.306;6.934;2023-02-04T05:25:31;0.67;;;0.37;;
22963;SDS011;11648;49.306;6.934;2023-02-04T05:27:58;1.70;;;0.50;;
22963;SDS011;11648;49.306;6.934;2023-02-04T05:30:25;1.07;;;0.60;;
22963;SDS011;11648;49.306;6.934;2023-02-04T05:32:51;1.07;;;0.40;;
22963;SDS011;11648;49.306;6.934;2023-02-04T05:35:18;1.83;;;0.40;;
22963;SDS011;11648;49.306;6.934;2023-02-04T05:37:45;2.03;;;0.60;;
22963;SDS011;11648;49.306;6.934;2023-02-04T05:40:12;2.07;;;0.70;;
22963;SDS011;11648;49.306;6.934;2023-02-04T05:42:39;1.53;;;0.67;;
22963;SDS011;11648;49.306;6.934;2023-02-04T05:45:16;1.57;;;0.50;;
22963;SDS011;11648;49.306;6.934;2023-02-04T05:47:44;1.87;;;0.30;;
22963;SDS011;11648;49.306;6.934;2023-02-04T05:50:11;0.40;;;0.20;;
22963;SDS011;11648;49.306;6.934;2023-02-04T05:52:38;0.70;;;0.27;;
22963;SDS011;11648;49.306;6.934;2023-02-04T05:55:05;1.23;;;0.30;;
22963;SDS011;11648;49.306;6.934;2023-02-04T05:57:33;1.90;;;0.30;;
22963;SDS011;11648;49.306;6.934;2023-02-04T06:00:00;1.37;;;0.30;;
22963;SDS011;11648;49.306;6.934;2023-02-04T06:02:37;0.93;;;0.20;;
22963;SDS011;11648;49.306;6.934;2023-02-04T06:05:04;0.97;;;0.20;;
22963;SDS011;11648;49.306;6.934;2023-02-04T06:07:31;0.63;;;0.20;;
22963;SDS011;11648;49.306;6.934;2023-02-04T06:09:57;0.60;;;0.20;;
22963;SDS011;11648;49.306;6.934;2023-02-04T06:12:25;0.93;;;0.20;;
22963;SDS011;11648;49.306;6.934;2023-02-04T06:14:52;0.60;;;0.20;;
22963;SDS011;11648;49.306;6.934;2023-02-04T06:17:19;0.73;;;0.20;;
22963;SDS011;11648;49.306;6.934;2023-02-04T06:19:45;1.20;;;0.30;;
22963;SDS011;11648;49.306;6.934;2023-02-04T06:22:12;1.93;;;0.67;;
22963;SDS011;11648;49.306;6.934;2023-02-04T06:24:39;0.87;;;0.23;;
22963;SDS011;11648;49.306;6.934;2023-02-04T06:27:05;1.60;;;0.50;;
22963;SDS011;11648;49.306;6.934;2023-02-04T06:29:32;1.07;;;0.30;;
22963;SDS011;11648;49.306;6.934;2023-02-04T06:31:59;1.53;;;0.40;;
22963;SDS011;11648;49.306;6.934;2023-02-04T06:34:25;1.40;;;0.50;;
22963;SDS011;11648;49.306;6.934;2023-02-04T06:36:52;1.00;;;0.40;;
22963;SDS011;11648;49.306;6.934;2023-02-04T06:39:19;1.70;;;0.40;;
22963;SDS011;11648;49.306;6.934;2023-02-04T06:41:46;4.13;;;1.77;;
22963;SDS011;11648;49.306;6.934;2023-02-04T06:44:13;1.07;;;0.47;;
22963;SDS011;11648;49.306;6.934;2023-02-04T06:46:39;1.83;;;0.43;;
22963;SDS011;11648;49.306;6.934;2023-02-04T06:49:06;1.43;;;0.40;;
22963;SDS011;11648;49.306;6.934;2023-02-04T06:51:33;1.63;;;0.40;;
22963;SDS011;11648;49.306;6.934;2023-02-04T06:53:59;1.77;;;0.50;;
22963;SDS011;11648;49.306;6.934;2023-02-04T06:56:26;1.50;;;0.50;;
22963;SDS011;11648;49.306;6.934;2023-02-04T06:58:54;2.17;;;0.67;;
22963;SDS011;11648;49.306;6.934;2023-02-04T07:01:21;3.33;;;0.70;;
22963;SDS011;11648;49.306;6.934;2023-02-04T07:03:47;2.63;;;1.10;;
22963;SDS011;11648;49.306;6.934;2023-02-04T07:06:14;3.27;;;1.70;;
22963;SDS011;11648;49.306;6.934;2023-02-04T07:08:41;2.73;;;1.10;;
22963;SDS011;11648;49.306;6.934;2023-02-04T07:11:08;3.00;;;1.20;;
22963;SDS011;11648;49.306;6.934;2023-02-04T07:13:34;1.77;;;0.83;;
22963;SDS011;11648;49.306;6.934;2023-02-04T07:16:01;1.67;;;0.70;;
22963;SDS011;11648;49.306;6.934;2023-02-04T07:18:28;3.10;;;0.83;;
22963;SDS011;11648;49.306;6.934;2023-02-04T07:20:55;4.13;;;1.10;;
22963;SDS011;11648;49.306;6.934;2023-02-04T07:23:21;2.30;;;1.00;;
22963;SDS011;11648;49.306;6.934;2023-02-04T07:25:50;3.00;;;1.10;;
22963;SDS011;11648;49.306;6.934;2023-02-04T07:28:21;2.67;;;1.00;;
22963;SDS011;11648;49.306;6.934;2023-02-04T07:30:48;2.67;;;1.13;;
22963;SDS011;11648;49.306;6.934;2023-02-04T07:33:15;3.20;;;1.10;;
22963;SDS011;11648;49.306;6.934;2023-02-04T07:35:42;2.27;;;1.20;;
22963;SDS011;11648;49.306;6.934;2023-02-04T07:38:09;4.70;;;1.30;;
22963;SDS011;11648;49.306;6.934;2023-02-04T07:40:36;4.87;;;1.70;;
22963;SDS011;11648;49.306;6.934;2023-02-04T07:43:04;5.93;;;1.90;;
22963;SDS011;11648;49.306;6.934;2023-02-04T07:45:32;4.70;;;2.30;;
22963;SDS011;11648;49.306;6.934;2023-02-04T07:47:59;4.73;;;2.03;;
22963;SDS011;11648;49.306;6.934;2023-02-04T07:50:25;4.97;;;1.77;;
22963;SDS011;11648;49.306;6.934;2023-02-04T07:52:52;4.53;;;2.00;;
22963;SDS011;11648;49.306;6.934;2023-02-04T07:55:19;5.47;;;1.80;;
22963;SDS011;11648;49.306;6.934;2023-02-04T07:57:45;4.20;;;1.93;;
22963;SDS011;11648;49.306;6.934;2023-02-04T08:00:12;3.93;;;1.47;;
22963;SDS011;11648;49.306;6.934;2023-02-04T08:02:39;5.70;;;1.80;;
22963;SDS011;11648;49.306;6.934;2023-02-04T08:05:07;4.63;;;1.40;;
22963;SDS011;11648;49.306;6.934;2023-02-04T08:07:35;3.70;;;1.50;;
22963;SDS011;11648;49.306;6.934;2023-02-04T08:10:02;3.87;;;1.53;;
22963;SDS011;11648;49.306;6.934;2023-02-04T08:12:30;6.73;;;2.50;;
22963;SDS011;11648;49.306;6.934;2023-02-04T08:14:56;5.53;;;2.00;;
22963;SDS011;11648;49.306;6.934;2023-02-04T08:17:23;4.67;;;2.20;;
22963;SDS011;11648;49.306;6.934;2023-02-04T08:19:50;5.87;;;2.30;;
22963;SDS011;11648;49.306;6.934;2023-02-04T08:22:17;6.43;;;2.53;;
22963;SDS011;11648;49.306;6.934;2023-02-04T08:24:44;4.70;;;2.23;;
22963;SDS011;11648;49.306;6.934;2023-02-04T08:27:10;8.47;;;2.90;;
22963;SDS011;11648;49.306;6.934;2023-02-04T08:29:37;6.93;;;2.57;;
22963;SDS011;11648;49.306;6.934;2023-02-04T08:32:04;8.70;;;3.03;;
22963;SDS011;11648;49.306;6.934;2023-02-04T08:34:30;9.20;;;2.83;;
22963;SDS011;11648;49.306;6.934;2023-02-04T08:36:57;5.97;;;1.83;;
22963;SDS011;11648;49.306;6.934;2023-02-04T08:39:24;3.37;;;1.60;;
22963;SDS011;11648;49.306;6.934;2023-02-04T08:41:50;4.63;;;2.03;;
22963;SDS011;11648;49.306;6.934;2023-02-04T08:44:17;5.33;;;2.20;;
22963;SDS011;11648;49.306;6.934;2023-02-04T08:46:44;4.13;;;1.97;;
22963;SDS011;11648;49.306;6.934;2023-02-04T08:49:10;4.33;;;2.20;;
22963;SDS011;11648;49.306;6.934;2023-02-04T08:51:37;4.30;;;2.10;;
22963;SDS011;11648;49.306;6.934;2023-02-04T08:54:04;5.80;;;2.73;;
22963;SDS011;11648;49.306;6.934;2023-02-04T08:56:30;5.07;;;2.60;;
22963;SDS011;11648;49.306;6.934;2023-02-04T08:58:57;5.43;;;2.90;;
22963;SDS011;11648;49.306;6.934;2023-02-04T09:01:24;6.00;;;2.93;;
22963;SDS011;11648;49.306;6.934;2023-02-04T09:03:50;6.37;;;3.40;;
22963;SDS011;11648;49.306;6.934;2023-02-04T09:06:17;4.73;;;3.10;;
22963;SDS011;11648;49.306;6.934;2023-02-04T09:08:44;5.43;;;2.60;;
22963;SDS011;11648;49.306;6.934;2023-02-04T09:11:11;4.53;;;2.30;;
22963;SDS011;11648;49.306;6.934;2023-02-04T09:13:38;4.30;;;1.70;;
22963;SDS011;11648;49.306;6.934;2023-02-04T09:16:04;5.80;;;1.87;;
22963;SDS011;11648;49.306;6.934;2023-02-04T09:18:31;5.07;;;1.67;;
22963;SDS011;11648;49.306;6.934;2023-02-04T09:20:58;5.73;;;1.70;;
22963;SDS011;11648;49.306;6.934;2023-02-04T09:23:25;4.80;;;2.00;;
22963;SDS011;11648;49.306;6.934;2023-02-04T09:25:52;7.10;;;2.33;;
22963;SDS011;11648;49.306;6.934;2023-02-04T09:28:19;6.63;;;2.67;;
22963;SDS011;11648;49.306;6.934;2023-02-04T09:30:46;6.67;;;2.43;;
22963;SDS011;11648;49.306;6.934;2023-02-04T09:33:14;7.80;;;2.90;;
22963;SDS011;11648;49.306;6.934;2023-02-04T09:35:42;8.67;;;2.57;;
22963;SDS011;11648;49.306;6.934;2023-02-04T09:38:09;8.87;;;2.30;;
22963;SDS011;11648;49.306;6.934;2023-02-04T09:40:37;6.97;;;2.27;;
22963;SDS011;11648;49.306;6.934;2023-02-04T09:43:08;9.27;;;2.30;;
22963;SDS011;11648;49.306;6.934;2023-02-04T09:45:43;6.23;;;2.00;;
22963;SDS011;11648;49.306;6.934;2023-02-04T09:48:10;8.07;;;2.17;;
22963;SDS011;11648;49.306;6.934;2023-02-04T09:50:39;7.17;;;2.10;;
22963;SDS011;11648;49.306;6.934;2023-02-04T09:53:09;4.80;;;1.73;;
22963;SDS011;11648;49.306;6.934;2023-02-04T09:55:42;7.63;;;2.37;;
22963;SDS011;11648;49.306;6.934;2023-02-04T09:58:14;5.70;;;1.90;;
22963;SDS011;11648;49.306;6.934;2023-02-04T10:00:43;7.30;;;2.30;;
22963;SDS011;11648;49.306;6.934;2023-02-04T10:03:15;8.93;;;2.33;;
22963;SDS011;11648;49.306;6.934;2023-02-04T10:05:44;6.93;;;2.03;;
22963;SDS011;11648;49.306;6.934;2023-02-04T10:08:16;6.03;;;2.30;;
22963;SDS011;11648;49.306;6.934;2023-02-04T10:10:45;6.43;;;2.10;;
22963;SDS011;11648;49.306;6.934;2023-02-04T10:13:22;6.22;;;2.15;;
22963;SDS011;11648;49.306;6.934;2023-02-04T10:15:52;6.72;;;2.67;;
22963;SDS011;11648;49.306;6.934;2023-02-04T10:18:24;6.78;;;2.33;;
22963;SDS011;11648;49.306;6.934;2023-02-04T10:21:07;8.23;;;2.55;;
22963;SDS011;11648;49.306;6.934;2023-02-04T10:23:37;8.05;;;2.90;;
22963;SDS011;11648;49.306;6.934;2023-02-04T10:26:04;8.35;;;3.03;;
22963;SDS011;11648;49.306;6.934;2023-02-04T10:28:34;7.88;;;3.00;;
22963;SDS011;11648;49.306;6.934;2023-02-04T10:31:02;7.85;;;3.25;;
22963;SDS011;11648;49.306;6.934;2023-02-04T10:33:29;9.35;;;2.92;;
22963;SDS011;11648;49.306;6.934;2023-02-04T10:35:57;7.60;;;3.00;;
22963;SDS011;11648;49.306;6.934;2023-02-04T10:38:23;10.30;;;3.45;;
22963;SDS011;11648;49.306;6.934;2023-02-04T10:41:03;8.77;;;2.90;;
22963;SDS011;11648;49.306;6.934;2023-02-04T10:43:31;7.78;;;3.15;;
22963;SDS011;11648;49.306;6.934;2023-02-04T10:45:58;7.57;;;2.80;;
22963;SDS011;11648;49.306;6.934;2023-02-04T10:48:28;7.05;;;3.13;;
22963;SDS011;11648;49.306;6.934;2023-02-04T10:50:57;9.45;;;3.10;;
22963;SDS011;11648;49.306;6.934;2023-02-04T10:53:24;8.38;;;3.10;;
22963;SDS011;11648;49.306;6.934;2023-02-04T10:56:18;9.45;;;3.80;;
22963;SDS011;11648;49.306;6.934;2023-02-04T10:58:46;10.00;;;3.28;;
22963;SDS011;11648;49.306;6.934;2023-02-04T11:01:15;9.15;;;3.25;;
22963;SDS011;11648;49.306;6.934;2023-02-04T11:03:42;9.10;;;3.30;;
22963;SDS011;11648;49.306;6.934;2023-02-04T11:06:17;20.77;;;4.73;;
22963;SDS011;11648;49.306;6.934;2023-02-04T11:08:47;15.00;;;3.77;;
22963;SDS011;11648;49.306;6.934;2023-02-04T11:11:16;15.27;;;7.70;;
22963;SDS011;11648;49.306;6.934;2023-02-04T11:16:30;17.10;;;7.50;;
22963;SDS011;11648;49.306;6.934;2023-02-04T11:19:02;12.37;;;3.93;;
22963;SDS011;11648;49.306;6.934;2023-02-04T11:26:45;13.43;;;6.17;;
22963;SDS011;11648;49.306;6.934;2023-02-04T11:39:27;12.60;;;5.30;;
22963;SDS011;11648;49.306;6.934;2023-02-04T11:41:59;9.33;;;3.70;;
22963;SDS011;11648;49.306;6.934;2023-02-04T11:44:26;12.57;;;3.73;;
22963;SDS011;11648;49.306;6.934;2023-02-04T11:46:54;11.40;;;3.57;;
22963;SDS011;11648;49.306;6.934;2023-02-04T11:49:22;11.20;;;3.80;;
22963;SDS011;11648;49.306;6.934;2023-02-04T11:51:50;8.63;;;3.63;;
22963;SDS011;11648;49.306;6.934;2023-02-04T11:54:29;13.03;;;3.90;;
22963;SDS011;11648;49.306;6.934;2023-02-04T11:56:57;13.10;;;3.77;;
22963;SDS011;11648;49.306;6.934;2023-02-04T11:59:25;10.20;;;3.77;;
22963;SDS011;11648;49.306;6.934;2023-02-04T12:02:02;11.40;;;3.70;;
22963;SDS011;11648;49.306;6.934;2023-02-04T12:04:55;10.93;;;3.50;;
22963;SDS011;11648;49.306;6.934;2023-02-04T12:07:25;13.80;;;4.00;;
22963;SDS011;11648;49.306;6.934;2023-02-04T12:09:54;11.10;;;4.00;;
22963;SDS011;11648;49.306;6.934;2023-02-04T12:12:28;11.33;;;3.80;;
22963;SDS011;11648;49.306;6.934;2023-02-04T12:14:57;10.17;;;3.70;;
22963;SDS011;11648;49.306;6.934;2023-02-04T12:17:29;11.07;;;3.43;;
22963;SDS011;11648;49.306;6.934;2023-02-04T12:19:56;8.97;;;3.03;;
22963;SDS011;11648;49.306;6.934;2023-02-04T12:22:22;10.90;;;3.60;;
22963;SDS011;11648;49.306;6.934;2023-02-04T12:24:49;11.47;;;3.27;;
22963;SDS011;11648;49.306;6.934;2023-02-04T12:27:17;9.40;;;3.43;;
22963;SDS011;11648;49.306;6.934;2023-02-04T12:29:44;11.17;;;3.47;;
22963;SDS011;11648;49.306;6.934;2023-02-04T12:32:11;9.97;;;3.67;;
22963;SDS011;11648;49.306;6.934;2023-02-04T12:34:38;11.63;;;3.70;;
22963;SDS011;11648;49.306;6.934;2023-02-04T12:37:04;11.20;;;3.43;;
22963;SDS011;11648;49.306;6.934;2023-02-04T12:39:31;10.87;;;3.50;;
22963;SDS011;11648;49.306;6.934;2023-02-04T12:41:58;9.23;;;2.93;;
22963;SDS011;11648;49.306;6.934;2023-02-04T12:44:24;14.37;;;3.53;;
22963;SDS011;11648;49.306;6.934;2023-02-04T12:46:51;8.60;;;3.10;;
22963;SDS011;11648;49.306;6.934;2023-02-04T12:49:18;8.53;;;3.07;;
22963;SDS011;11648;49.306;6.934;2023-02-04T12:51:46;9.97;;;3.47;;
22963;SDS011;11648;49.306;6.934;2023-02-04T12:54:12;9.83;;;3.30;;
22963;SDS011;11648;49.306;6.934;2023-02-04T12:56:39;11.03;;;3.37;;
22963;SDS011;11648;49.306;6.934;2023-02-04T12:59:06;12.03;;;3.57;;
22963;SDS011;11648;49.306;6.934;2023-02-04T13:01:33;9.03;;;3.13;;
22963;SDS011;11648;49.306;6.934;2023-02-04T13:04:00;12.70;;;3.70;;
22963;SDS011;11648;49.306;6.934;2023-02-04T13:06:27;7.73;;;3.10;;
22963;SDS011;11648;49.306;6.934;2023-02-04T13:08:53;9.20;;;3.57;;
22963;SDS011;11648;49.306;6.934;2023-02-04T13:11:20;9.63;;;3.23;;
22963;SDS011;11648;49.306;6.934;2023-02-04T13:13:47;12.57;;;4.77;;
22963;SDS011;11648;49.306;6.934;2023-02-04T13:16:13;10.30;;;3.23;;
22963;SDS011;11648;49.306;6.934;2023-02-04T13:18:40;11.17;;;3.70;;
22963;SDS011;11648;49.306;6.934;2023-02-04T13:21:07;8.83;;;3.17;;
22963;SDS011;11648;49.306;6.934;2023-02-04T13:23:33;10.17;;;4.10;;
22963;SDS011;11648;49.306;6.934;2023-02-04T13:26:00;9.67;;;3.60;;
22963;SDS011;11648;49.306;6.934;2023-02-04T13:28:27;10.30;;;3.70;;
22963;SDS011;11648;49.306;6.934;2023-02-04T13:30:53;13.20;;;3.40;;
22963;SDS011;11648;49.306;6.934;2023-02-04T13:33:20;12.10;;;3.97;;
22963;SDS011;11648;49.306;6.934;2023-02-04T13:35:47;10.83;;;3.10;;
22963;SDS011;11648;49.306;6.934;2023-02-04T13:38:13;15.40;;;6.17;;
22963;SDS011;11648;49.306;6.934;2023-02-04T13:40:40;10.13;;;3.40;;
22963;SDS011;11648;49.306;6.934;2023-02-04T13:43:07;11.83;;;3.40;;
22963;SDS011;11648;49.306;6.934;2023-02-04T13:45:34;12.93;;;3.13;;
22963;SDS011;11648;49.306;6.934;2023-02-04T13:48:01;10.23;;;2.90;;
22963;SDS011;11648;49.306;6.934;2023-02-04T13:50:28;10.20;;;3.17;;
22963;SDS011;11648;49.306;6.934;2023-02-04T13:52:55;10.17;;;2.97;;
22963;SDS011;11648;49.306;6.934;2023-02-04T13:55:22;9.73;;;3.00;;
22963;SDS011;11648;49.306;6.934;2023-02-04T13:57:49;10.53;;;4.00;;
22963;SDS011;11648;49.306;6.934;2023-02-04T14:00:16;10.63;;;3.17;;
22963;SDS011;11648;49.306;6.934;2023-02-04T14:02:43;12.60;;;3.77;;
22963;SDS011;11648;49.306;6.934;2023-02-04T14:05:10;14.63;;;4.40;;
22963;SDS011;11648;49.306;6.934;2023-02-04T14:07:36;11.37;;;4.37;;
22963;SDS011;11648;49.306;6.934;2023-02-04T14:10:03;10.63;;;3.50;;
22963;SDS011;11648;49.306;6.934;2023-02-04T14:12:30;10.53;;;3.20;;
22963;SDS011;11648;49.306;6.934;2023-02-04T14:14:57;11.53;;;3.40;;
22963;SDS011;11648;49.306;6.934;2023-02-04T14:17:23;11.77;;;3.33;;
22963;SDS011;11648;49.306;6.934;2023-02-04T14:19:50;10.97;;;3.27;;
22963;SDS011;11648;49.306;6.934;2023-02-04T14:22:17;12.00;;;3.40;;
22963;SDS011;11648;49.306;6.934;2023-02-04T14:24:43;10.03;;;3.17;;
22963;SDS011;11648;49.306;6.934;2023-02-04T14:27:15;9.70;;;3.13;;
22963;SDS011;11648;49.306;6.934;2023-02-04T14:29:42;9.83;;;3.17;;
22963;SDS011;11648;49.306;6.934;2023-02-04T14:32:09;9.80;;;3.40;;
22963;SDS011;11648;49.306;6.934;2023-02-04T14:34:35;9.63;;;3.57;;
22963;SDS011;11648;49.306;6.934;2023-02-04T14:37:02;12.57;;;3.70;;
22963;SDS011;11648;49.306;6.934;2023-02-04T14:39:29;13.37;;;4.17;;
22963;SDS011;11648;49.306;6.934;2023-02-04T14:41:55;10.47;;;3.07;;
22963;SDS011;11648;49.306;6.934;2023-02-04T14:44:22;9.00;;;3.00;;
22963;SDS011;11648;49.306;6.934;2023-02-04T14:46:49;12.60;;;3.80;;
22963;SDS011;11648;49.306;6.934;2023-02-04T14:49:15;9.43;;;3.47;;
22963;SDS011;11648;49.306;6.934;2023-02-04T14:51:43;10.40;;;3.23;;
22963;SDS011;11648;49.306;6.934;2023-02-04T14:54:09;12.57;;;3.30;;
22963;SDS011;11648;49.306;6.934;2023-02-04T14:56:36;12.93;;;3.80;;
22963;SDS011;11648;49.306;6.934;2023-02-04T14:59:03;9.07;;;3.43;;
22963;SDS011;11648;49.306;6.934;2023-02-04T15:01:30;11.50;;;3.60;;
22963;SDS011;11648;49.306;6.934;2023-02-04T15:03:57;12.13;;;3.83;;